sensor_id;sensor_type;location;lat;lon;timestamp;pressure;altitude;pressure_sealevel;temperature;humidity
83896;BME280;74045;42.812;74.638;2023-12-14T00:01:12;92350.19;;;-10.03;59.49
83896;BME280;74045;42.812;74.638;2023-12-14T00:03:42;92307.84;;;-10.36;59.00
83896;BME280;74045;42.812;74.638;2023-12-14T00:06:13;92362.38;;;-10.15;58.64
83896;BME280;74045;42.812;74.638;2023-12-14T00:08:39;92300.69;;;-10.66;58.37
83896;BME280;74045;42.812;74.638;2023-12-14T00:11:06;92369.19;;;-10.26;58.43
83896;BME280;74045;42.812;74.638;2023-12-14T00:13:32;92363.06;;;-10.30;58.40
83896;BME280;74045;42.812;74.638;2023-12-14T00:15:59;92330.16;;;-10.53;57.94
83896;BME280;74045;42.812;74.638;2023-12-14T00:18:25;92347.91;;;-10.42;58.78
83896;BME280;74045;42.812;74.638;2023-12-14T00:20:50;92353.00;;;-10.42;59.04
83896;BME280;74045;42.812;74.638;2023-12-14T00:23:16;92341.63;;;-10.56;59.17
83896;BME280;74045;42.812;74.638;2023-12-14T00:25:42;92338.94;;;-10.71;58.28
83896;BME280;74045;42.812;74.638;2023-12-14T00:28:08;92339.91;;;-10.77;58.28
83896;BME280;74045;42.812;74.638;2023-12-14T00:30:33;92340.56;;;-10.87;58.49
83896;BME280;74045;42.812;74.638;2023-12-14T00:32:59;92322.25;;;-11.06;58.96
83896;BME280;74045;42.812;74.638;2023-12-14T00:35:25;92323.75;;;-11.10;59.33
83896;BME280;74045;42.812;74.638;2023-12-14T00:37:50;92310.22;;;-11.11;60.12
83896;BME280;74045;42.812;74.638;2023-12-14T00:40:16;92274.47;;;-11.38;60.23
83896;BME280;74045;42.812;74.638;2023-12-14T00:42:42;92304.84;;;-11.14;59.25
83896;BME280;74045;42.812;74.638;2023-12-14T00:45:08;92291.25;;;-11.20;60.37
83896;BME280;74045;42.812;74.638;2023-12-14T00:47:34;92306.66;;;-11.10;60.03
83896;BME280;74045;42.812;74.638;2023-12-14T00:49:59;92217.50;;;-11.49;61.33
83896;BME280;74045;42.812;74.638;2023-12-14T00:52:25;92179.75;;;-11.52;60.84
83896;BME280;74045;42.812;74.638;2023-12-14T00:54:51;92300.78;;;-10.56;61.47
83896;BME280;74045;42.812;74.638;2023-12-14T00:57:17;92305.75;;;-10.44;60.90
83896;BME280;74045;42.812;74.638;2023-12-14T00:59:42;92301.75;;;-10.30;60.65
83896;BME280;74045;42.812;74.638;2023-12-14T01:02:08;92307.69;;;-10.14;59.51
83896;BME280;74045;42.812;74.638;2023-12-14T01:04:34;92285.16;;;-10.22;58.81
83896;BME280;74045;42.812;74.638;2023-12-14T01:06:59;92308.31;;;-10.02;59.35
83896;BME280;74045;42.812;74.638;2023-12-14T01:09:25;92306.25;;;-10.05;58.21
83896;BME280;74045;42.812;74.638;2023-12-14T01:11:51;92288.22;;;-10.25;58.86
83896;BME280;74045;42.812;74.638;2023-12-14T01:14:16;92303.84;;;-10.22;58.69
83896;BME280;74045;42.812;74.638;2023-12-14T01:16:42;92304.53;;;-10.31;58.90
83896;BME280;74045;42.812;74.638;2023-12-14T01:19:08;92260.63;;;-10.66;58.89
83896;BME280;74045;42.812;74.638;2023-12-14T01:21:33;92284.91;;;-10.63;59.38
83896;BME280;74045;42.812;74.638;2023-12-14T01:23:59;92213.09;;;-11.31;59.02
83896;BME280;74045;42.812;74.638;2023-12-14T01:26:28;92306.81;;;-10.94;60.03
83896;BME280;74045;42.812;74.638;2023-12-14T01:28:54;92298.28;;;-11.05;60.94
83896;BME280;74045;42.812;74.638;2023-12-14T01:31:19;92304.06;;;-11.15;61.22
83896;BME280;74045;42.812;74.638;2023-12-14T01:33:49;92285.38;;;-11.20;61.93
83896;BME280;74045;42.812;74.638;2023-12-14T01:36:21;92183.44;;;-11.91;62.04
83896;BME280;74045;42.812;74.638;2023-12-14T01:38:47;92280.47;;;-11.27;61.82
83896;BME280;74045;42.812;74.638;2023-12-14T01:41:13;92283.41;;;-11.13;61.74
83896;BME280;74045;42.812;74.638;2023-12-14T01:43:39;92276.81;;;-11.09;61.62
83896;BME280;74045;42.812;74.638;2023-12-14T01:46:05;92270.13;;;-11.15;61.41
83896;BME280;74045;42.812;74.638;2023-12-14T01:48:30;92260.56;;;-11.03;61.76
83896;BME280;74045;42.812;74.638;2023-12-14T01:50:56;92185.09;;;-11.53;61.87
83896;BME280;74045;42.812;74.638;2023-12-14T01:53:22;92237.25;;;-11.12;60.99
83896;BME280;74045;42.812;74.638;2023-12-14T01:55:49;92269.38;;;-10.89;61.48
83896;BME280;74045;42.812;74.638;2023-12-14T01:58:19;92165.19;;;-11.56;60.91
83896;BME280;74045;42.812;74.638;2023-12-14T02:01:08;92275.78;;;-10.81;60.76
83896;BME280;74045;42.812;74.638;2023-12-14T02:03:50;92261.81;;;-10.73;63.59
83896;BME280;74045;42.812;74.638;2023-12-14T02:06:16;92263.25;;;-10.55;62.35
83896;BME280;74045;42.812;74.638;2023-12-14T02:08:43;92242.09;;;-10.51;61.70
83896;BME280;74045;42.812;74.638;2023-12-14T02:11:10;92249.91;;;-10.30;60.98
83896;BME280;74045;42.812;74.638;2023-12-14T02:13:36;92141.50;;;-10.87;60.45
83896;BME280;74045;42.812;74.638;2023-12-14T02:16:02;92242.09;;;-10.03;61.93
83896;BME280;74045;42.812;74.638;2023-12-14T02:18:28;92237.28;;;-9.95;61.53
83896;BME280;74045;42.812;74.638;2023-12-14T02:20:53;92213.19;;;-10.09;62.28
83896;BME280;74045;42.812;74.638;2023-12-14T02:23:19;92244.00;;;-9.83;61.58
83896;BME280;74045;42.812;74.638;2023-12-14T02:25:45;92246.09;;;-9.70;60.61
83896;BME280;74045;42.812;74.638;2023-12-14T02:28:10;92234.38;;;-9.66;60.02
83896;BME280;74045;42.812;74.638;2023-12-14T02:30:36;92238.50;;;-9.55;59.50
83896;BME280;74045;42.812;74.638;2023-12-14T02:33:02;92241.06;;;-9.55;59.28
83896;BME280;74045;42.812;74.638;2023-12-14T02:35:28;92211.56;;;-9.73;59.73
83896;BME280;74045;42.812;74.638;2023-12-14T02:37:53;92235.94;;;-9.60;58.88
83896;BME280;74045;42.812;74.638;2023-12-14T02:40:19;92220.50;;;-9.75;59.20
83896;BME280;74045;42.812;74.638;2023-12-14T02:42:45;92245.06;;;-9.69;59.01
83896;BME280;74045;42.812;74.638;2023-12-14T02:45:10;92240.94;;;-9.80;59.38
83896;BME280;74045;42.812;74.638;2023-12-14T02:47:36;92135.56;;;-10.61;59.52
83896;BME280;74045;42.812;74.638;2023-12-14T02:50:02;92131.16;;;-10.70;60.38
83896;BME280;74045;42.812;74.638;2023-12-14T02:52:28;92229.53;;;-10.15;60.96
83896;BME280;74045;42.812;74.638;2023-12-14T02:54:53;92200.34;;;-10.29;60.32
83896;BME280;74045;42.812;74.638;2023-12-14T02:57:19;92187.00;;;-10.42;60.75
83896;BME280;74045;42.812;74.638;2023-12-14T02:59:45;92201.88;;;-10.23;61.21
83896;BME280;74045;42.812;74.638;2023-12-14T03:02:11;92204.50;;;-10.13;60.64
83896;BME280;74045;42.812;74.638;2023-12-14T03:04:39;92203.53;;;-10.02;60.41
83896;BME280;74045;42.812;74.638;2023-12-14T03:07:05;92200.78;;;-9.90;60.82
83896;BME280;74045;42.812;74.638;2023-12-14T03:09:31;92200.06;;;-9.75;60.21
83896;BME280;74045;42.812;74.638;2023-12-14T03:11:57;92203.47;;;-9.54;60.44
83896;BME280;74045;42.812;74.638;2023-12-14T03:14:23;92163.31;;;-9.54;59.91
83896;BME280;74045;42.812;74.638;2023-12-14T03:16:49;92171.56;;;-9.21;60.39
83896;BME280;74045;42.812;74.638;2023-12-14T03:19:15;92180.53;;;-8.98;59.59
83896;BME280;74045;42.812;74.638;2023-12-14T03:21:44;92176.19;;;-8.77;58.76
83896;BME280;74045;42.812;74.638;2023-12-14T03:24:09;92173.63;;;-8.57;59.27
83896;BME280;74045;42.812;74.638;2023-12-14T03:26:35;92143.13;;;-8.58;58.17
83896;BME280;74045;42.812;74.638;2023-12-14T03:29:01;92133.59;;;-8.37;61.00
83896;BME280;74045;42.812;74.638;2023-12-14T03:31:27;92159.84;;;-7.96;58.86
83896;BME280;74045;42.812;74.638;2023-12-14T03:33:52;92150.34;;;-7.85;57.54
83896;BME280;74045;42.812;74.638;2023-12-14T03:36:18;92134.09;;;-7.70;57.66
83896;BME280;74045;42.812;74.638;2023-12-14T03:38:44;92149.94;;;-7.48;57.81
83896;BME280;74045;42.812;74.638;2023-12-14T03:41:10;92151.91;;;-7.39;58.14
83896;BME280;74045;42.812;74.638;2023-12-14T03:43:35;92148.56;;;-7.35;57.31
83896;BME280;74045;42.812;74.638;2023-12-14T03:46:01;92125.56;;;-7.50;56.74
83896;BME280;74045;42.812;74.638;2023-12-14T03:48:27;92146.72;;;-7.29;57.06
83896;BME280;74045;42.812;74.638;2023-12-14T03:50:52;92146.41;;;-7.17;58.31
83896;BME280;74045;42.812;74.638;2023-12-14T03:53:18;92144.31;;;-7.10;58.47
83896;BME280;74045;42.812;74.638;2023-12-14T03:55:45;92142.72;;;-7.06;58.09
83896;BME280;74045;42.812;74.638;2023-12-14T03:58:10;92138.03;;;-6.94;57.89
83896;BME280;74045;42.812;74.638;2023-12-14T04:00:36;92004.81;;;-7.64;58.31
83896;BME280;74045;42.812;74.638;2023-12-14T04:03:02;92115.09;;;-6.85;58.30
83896;BME280;74045;42.812;74.638;2023-12-14T04:05:27;92119.41;;;-6.81;58.44
83896;BME280;74045;42.812;74.638;2023-12-14T04:07:53;92107.84;;;-6.78;58.52
83896;BME280;74045;42.812;74.638;2023-12-14T04:10:19;92108.53;;;-6.67;60.14
83896;BME280;74045;42.812;74.638;2023-12-14T04:12:44;92117.88;;;-6.53;59.92
83896;BME280;74045;42.812;74.638;2023-12-14T04:15:10;92103.69;;;-6.45;60.32
83896;BME280;74045;42.812;74.638;2023-12-14T04:17:37;92086.78;;;-6.51;60.42
83896;BME280;74045;42.812;74.638;2023-12-14T04:20:03;92063.66;;;-6.51;59.82
83896;BME280;74045;42.812;74.638;2023-12-14T04:22:31;92107.41;;;-6.08;59.01
83896;BME280;74045;42.812;74.638;2023-12-14T04:24:57;92025.06;;;-6.46;58.64
83896;BME280;74045;42.812;74.638;2023-12-14T04:27:22;92083.72;;;-5.86;58.12
83896;BME280;74045;42.812;74.638;2023-12-14T04:29:52;92089.53;;;-5.75;58.67
83896;BME280;74045;42.812;74.638;2023-12-14T04:32:18;92080.22;;;-5.71;58.49
83896;BME280;74045;42.812;74.638;2023-12-14T04:35:38;92079.75;;;-5.54;61.21
83896;BME280;74045;42.812;74.638;2023-12-14T04:38:04;92074.25;;;-5.48;60.40
83896;BME280;74045;42.812;74.638;2023-12-14T04:40:30;92061.84;;;-5.46;60.59
83896;BME280;74045;42.812;74.638;2023-12-14T04:42:55;91932.25;;;-6.25;59.07
83896;BME280;74045;42.812;74.638;2023-12-14T04:45:21;92074.19;;;-5.10;59.41
83896;BME280;74045;42.812;74.638;2023-12-14T04:47:47;92058.09;;;-5.02;57.34
83896;BME280;74045;42.812;74.638;2023-12-14T04:50:12;92072.84;;;-4.88;57.18
83896;BME280;74045;42.812;74.638;2023-12-14T04:52:38;92061.88;;;-4.80;56.73
83896;BME280;74045;42.812;74.638;2023-12-14T04:55:04;92049.84;;;-4.85;56.75
83896;BME280;74045;42.812;74.638;2023-12-14T04:57:30;91832.06;;;-6.31;56.85
83896;BME280;74045;42.812;74.638;2023-12-14T04:59:56;92006.69;;;-4.93;57.28
83896;BME280;74045;42.812;74.638;2023-12-14T05:02:21;92060.00;;;-4.61;58.23
83896;BME280;74045;42.812;74.638;2023-12-14T05:04:47;92066.34;;;-4.53;57.41
83896;BME280;74045;42.812;74.638;2023-12-14T05:07:13;92039.56;;;-4.71;57.96
83896;BME280;74045;42.812;74.638;2023-12-14T05:09:38;92028.78;;;-4.73;57.43
83896;BME280;74045;42.812;74.638;2023-12-14T05:12:04;92026.59;;;-4.66;58.21
83896;BME280;74045;42.812;74.638;2023-12-14T05:14:30;91985.53;;;-4.90;57.65
83896;BME280;74045;42.812;74.638;2023-12-14T05:16:56;92025.53;;;-4.51;59.11
83896;BME280;74045;42.812;74.638;2023-12-14T05:19:21;92027.56;;;-4.34;58.24
83896;BME280;74045;42.812;74.638;2023-12-14T05:21:47;92018.22;;;-4.30;58.13
83896;BME280;74045;42.812;74.638;2023-12-14T05:24:13;92020.88;;;-4.08;58.67
83896;BME280;74045;42.812;74.638;2023-12-14T05:26:38;91988.94;;;-4.12;55.94
83896;BME280;74045;42.812;74.638;2023-12-14T05:29:07;91978.06;;;-4.09;56.12
83896;BME280;74045;42.812;74.638;2023-12-14T05:31:32;91967.75;;;-4.09;57.29
83896;BME280;74045;42.812;74.638;2023-12-14T05:33:58;91991.34;;;-3.65;56.96
83896;BME280;74045;42.812;74.638;2023-12-14T05:36:24;91997.88;;;-3.45;55.90
83896;BME280;74045;42.812;74.638;2023-12-14T05:38:49;91988.38;;;-3.36;56.27
83896;BME280;74045;42.812;74.638;2023-12-14T05:41:15;91988.19;;;-3.17;55.92
83896;BME280;74045;42.812;74.638;2023-12-14T05:43:41;91972.91;;;-3.05;55.67
83896;BME280;74045;42.812;74.638;2023-12-14T05:46:06;91954.88;;;-2.96;55.96
83896;BME280;74045;42.812;74.638;2023-12-14T05:48:32;91901.09;;;-3.17;54.83
83896;BME280;74045;42.812;74.638;2023-12-14T05:51:00;91966.41;;;-2.62;55.33
83896;BME280;74045;42.812;74.638;2023-12-14T05:53:26;91961.72;;;-2.60;54.49
83896;BME280;74045;42.812;74.638;2023-12-14T05:55:52;91941.94;;;-2.56;54.85
83896;BME280;74045;42.812;74.638;2023-12-14T05:58:17;91942.00;;;-2.39;54.97
83896;BME280;74045;42.812;74.638;2023-12-14T06:00:44;91951.75;;;-2.36;54.54
83896;BME280;74045;42.812;74.638;2023-12-14T06:03:10;91934.72;;;-2.28;53.70
83896;BME280;74045;42.812;74.638;2023-12-14T06:05:35;91902.13;;;-2.38;53.61
83896;BME280;74045;42.812;74.638;2023-12-14T06:08:01;91900.00;;;-2.36;53.54
83896;BME280;74045;42.812;74.638;2023-12-14T06:10:26;91822.59;;;-2.81;53.38
83896;BME280;74045;42.812;74.638;2023-12-14T06:12:52;91857.34;;;-2.47;52.05
83896;BME280;74045;42.812;74.638;2023-12-14T06:15:18;91914.03;;;-2.02;53.84
83896;BME280;74045;42.812;74.638;2023-12-14T06:17:43;91919.53;;;-1.95;52.41
83896;BME280;74045;42.812;74.638;2023-12-14T06:20:09;91895.91;;;-2.02;52.79
83896;BME280;74045;42.812;74.638;2023-12-14T06:22:39;91907.50;;;-1.82;54.21
83896;BME280;74045;42.812;74.638;2023-12-14T06:25:05;91910.69;;;-1.76;52.87
83896;BME280;74045;42.812;74.638;2023-12-14T06:27:31;91897.16;;;-1.73;53.53
83896;BME280;74045;42.812;74.638;2023-12-14T06:29:56;91910.72;;;-1.68;53.37
83896;BME280;74045;42.812;74.638;2023-12-14T06:32:22;91894.84;;;-1.66;53.69
83896;BME280;74045;42.812;74.638;2023-12-14T06:34:48;91893.34;;;-1.67;53.41
83896;BME280;74045;42.812;74.638;2023-12-14T06:37:13;91896.69;;;-1.58;53.09
83896;BME280;74045;42.812;74.638;2023-12-14T06:39:41;91768.50;;;-2.34;52.73
83896;BME280;74045;42.812;74.638;2023-12-14T06:42:07;91873.69;;;-1.60;52.56
83896;BME280;74045;42.812;74.638;2023-12-14T06:44:32;91805.63;;;-1.95;52.46
83896;BME280;74045;42.812;74.638;2023-12-14T06:46:58;91872.44;;;-1.45;52.85
83896;BME280;74045;42.812;74.638;2023-12-14T06:49:25;91857.03;;;-1.50;52.75
83896;BME280;74045;42.812;74.638;2023-12-14T06:51:50;91866.91;;;-1.35;52.68
83896;BME280;74045;42.812;74.638;2023-12-14T06:54:16;91866.75;;;-1.29;52.76
83896;BME280;74045;42.812;74.638;2023-12-14T06:56:42;91856.84;;;-1.27;51.98
83896;BME280;74045;42.812;74.638;2023-12-14T06:59:07;91828.53;;;-1.41;52.73
83896;BME280;74045;42.812;74.638;2023-12-14T07:01:33;91812.22;;;-1.42;52.53
83896;BME280;74045;42.812;74.638;2023-12-14T07:03:59;91837.44;;;-1.21;52.49
83896;BME280;74045;42.812;74.638;2023-12-14T07:06:25;91815.25;;;-1.31;52.25
83896;BME280;74045;42.812;74.638;2023-12-14T07:08:50;91813.41;;;-1.30;52.42
83896;BME280;74045;42.812;74.638;2023-12-14T07:11:16;91835.28;;;-1.10;52.37
83896;BME280;74045;42.812;74.638;2023-12-14T07:13:42;91815.22;;;-1.22;53.05
83896;BME280;74045;42.812;74.638;2023-12-14T07:16:09;91829.44;;;-0.99;52.81
83896;BME280;74045;42.812;74.638;2023-12-14T07:18:36;91743.50;;;-1.48;52.50
83896;BME280;74045;42.812;74.638;2023-12-14T07:21:03;91808.69;;;-0.99;52.31
83896;BME280;74045;42.812;74.638;2023-12-14T07:23:28;91804.09;;;-0.93;52.82
83896;BME280;74045;42.812;74.638;2023-12-14T07:25:54;91803.16;;;-0.88;52.01
83896;BME280;74045;42.812;74.638;2023-12-14T07:28:21;91766.19;;;-1.06;53.39
83896;BME280;74045;42.812;74.638;2023-12-14T07:30:46;91785.59;;;-0.83;51.87
83896;BME280;74045;42.812;74.638;2023-12-14T07:33:13;91777.34;;;-0.85;51.19
83896;BME280;74045;42.812;74.638;2023-12-14T07:35:39;91773.66;;;-0.75;52.59
83896;BME280;74045;42.812;74.638;2023-12-14T07:38:05;91774.72;;;-0.76;51.42
83896;BME280;74045;42.812;74.638;2023-12-14T07:40:30;91759.53;;;-0.86;51.28
83896;BME280;74045;42.812;74.638;2023-12-14T07:42:56;91755.63;;;-0.72;52.03
83896;BME280;74045;42.812;74.638;2023-12-14T07:45:22;91768.53;;;-0.63;51.68
83896;BME280;74045;42.812;74.638;2023-12-14T07:47:47;91711.06;;;-0.95;52.22
83896;BME280;74045;42.812;74.638;2023-12-14T07:50:13;91588.19;;;-1.74;52.10
83896;BME280;74045;42.812;74.638;2023-12-14T07:52:39;91748.97;;;-0.60;52.28
83896;BME280;74045;42.812;74.638;2023-12-14T07:55:06;91674.50;;;-1.02;51.95
83896;BME280;74045;42.812;74.638;2023-12-14T07:57:32;91668.66;;;-0.99;51.57
83896;BME280;74045;42.812;74.638;2023-12-14T07:59:58;91738.59;;;-0.60;52.32
83896;BME280;74045;42.812;74.638;2023-12-14T08:02:23;91729.72;;;-0.59;52.30
83896;BME280;74045;42.812;74.638;2023-12-14T08:04:49;91641.59;;;-1.10;52.09
83896;BME280;74045;42.812;74.638;2023-12-14T08:07:15;91721.69;;;-0.66;52.52
83896;BME280;74045;42.812;74.638;2023-12-14T08:09:41;91713.53;;;-0.56;51.98
83896;BME280;74045;42.812;74.638;2023-12-14T08:12:06;91713.97;;;-0.54;52.87
83896;BME280;74045;42.812;74.638;2023-12-14T08:14:33;91720.06;;;-0.50;52.56
83896;BME280;74045;42.812;74.638;2023-12-14T08:17:04;91626.44;;;-0.99;52.48
83896;BME280;74045;42.812;74.638;2023-12-14T08:19:30;91694.97;;;-0.46;53.32
83896;BME280;74045;42.812;74.638;2023-12-14T08:21:56;91689.03;;;-0.47;53.29
83896;BME280;74045;42.812;74.638;2023-12-14T08:24:21;91691.19;;;-0.49;53.59
83896;BME280;74045;42.812;74.638;2023-12-14T08:26:47;91665.84;;;-0.64;53.33
83896;BME280;74045;42.812;74.638;2023-12-14T08:29:13;91665.00;;;-0.56;53.55
83896;BME280;74045;42.812;74.638;2023-12-14T08:31:38;91669.38;;;-0.48;53.13
83896;BME280;74045;42.812;74.638;2023-12-14T08:34:04;91669.13;;;-0.42;54.33
83896;BME280;74045;42.812;74.638;2023-12-14T08:36:30;91665.28;;;-0.36;52.97
83896;BME280;74045;42.812;74.638;2023-12-14T08:38:57;91589.84;;;-0.85;53.57
83896;BME280;74045;42.812;74.638;2023-12-14T08:41:22;91664.16;;;-0.48;53.77
83896;BME280;74045;42.812;74.638;2023-12-14T08:43:48;91652.50;;;-0.41;53.26
83896;BME280;74045;42.812;74.638;2023-12-14T08:46:14;91630.81;;;-0.58;53.41
83896;BME280;74045;42.812;74.638;2023-12-14T08:48:39;91645.38;;;-0.44;53.92
83896;BME280;74045;42.812;74.638;2023-12-14T08:51:05;91549.03;;;-1.09;53.94
83896;BME280;74045;42.812;74.638;2023-12-14T08:53:31;91639.75;;;-0.34;54.09
83896;BME280;74045;42.812;74.638;2023-12-14T08:55:57;91615.47;;;-0.51;53.16
83896;BME280;74045;42.812;74.638;2023-12-14T08:58:23;91573.28;;;-0.72;53.51
83896;BME280;74045;42.812;74.638;2023-12-14T09:00:49;91626.69;;;-0.26;53.37
83896;BME280;74045;42.812;74.638;2023-12-14T09:03:18;91628.97;;;-0.24;53.90
83896;BME280;74045;42.812;74.638;2023-12-14T09:05:44;91623.88;;;-0.20;53.81
83896;BME280;74045;42.812;74.638;2023-12-14T09:08:10;91626.03;;;-0.23;53.20
83896;BME280;74045;42.812;74.638;2023-12-14T09:10:38;91615.91;;;-0.15;53.75
83896;BME280;74045;42.812;74.638;2023-12-14T09:13:04;91621.84;;;-0.15;53.75
83896;BME280;74045;42.812;74.638;2023-12-14T09:15:33;91604.00;;;-0.16;53.54
83896;BME280;74045;42.812;74.638;2023-12-14T09:17:59;91440.84;;;-1.33;54.21
83896;BME280;74045;42.812;74.638;2023-12-14T09:20:25;91558.38;;;-0.51;54.04
83896;BME280;74045;42.812;74.638;2023-12-14T09:22:52;91534.03;;;-0.71;53.71
83896;BME280;74045;42.812;74.638;2023-12-14T09:25:18;91608.41;;;-0.17;54.31
83896;BME280;74045;42.812;74.638;2023-12-14T09:27:44;91588.28;;;-0.32;53.87
83896;BME280;74045;42.812;74.638;2023-12-14T09:30:10;91536.97;;;-0.60;53.91
83896;BME280;74045;42.812;74.638;2023-12-14T09:32:36;91597.63;;;-0.19;53.80
83896;BME280;74045;42.812;74.638;2023-12-14T09:35:02;91492.63;;;-0.79;55.09
83896;BME280;74045;42.812;74.638;2023-12-14T09:37:28;91586.69;;;-0.25;54.66
83896;BME280;74045;42.812;74.638;2023-12-14T09:39:54;91565.56;;;-0.35;54.46
83896;BME280;74045;42.812;74.638;2023-12-14T09:42:20;91576.94;;;-0.28;54.97
83896;BME280;74045;42.812;74.638;2023-12-14T09:44:50;91501.94;;;-0.78;54.98
83896;BME280;74045;42.812;74.638;2023-12-14T09:47:16;91581.13;;;-0.35;55.31
83896;BME280;74045;42.812;74.638;2023-12-14T09:49:42;91476.16;;;-0.96;56.04
83896;BME280;74045;42.812;74.638;2023-12-14T09:52:09;91572.16;;;-0.50;56.00
83896;BME280;74045;42.812;74.638;2023-12-14T09:54:35;91586.06;;;-0.55;56.22
83896;BME280;74045;42.812;74.638;2023-12-14T09:57:01;91572.66;;;-0.57;56.33
83896;BME280;74045;42.812;74.638;2023-12-14T09:59:27;91572.09;;;-0.62;56.72
83896;BME280;74045;42.812;74.638;2023-12-14T10:01:52;91558.00;;;-0.74;56.63
83896;BME280;74045;42.812;74.638;2023-12-14T10:04:19;91562.00;;;-0.76;57.25
83896;BME280;74045;42.812;74.638;2023-12-14T10:06:47;91571.19;;;-0.79;56.96
83896;BME280;74045;42.812;74.638;2023-12-14T10:09:13;91566.97;;;-0.83;57.85
83896;BME280;74045;42.812;74.638;2023-12-14T10:11:42;91457.13;;;-1.66;58.00
83896;BME280;74045;42.812;74.638;2023-12-14T10:14:22;91569.25;;;-1.03;57.83
83896;BME280;74045;42.812;74.638;2023-12-14T10:16:49;91558.41;;;-1.17;58.13
83896;BME280;74045;42.812;74.638;2023-12-14T10:19:19;91480.50;;;-1.75;58.66
83896;BME280;74045;42.812;74.638;2023-12-14T10:21:48;91558.50;;;-1.35;58.47
83896;BME280;74045;42.812;74.638;2023-12-14T10:24:15;91550.56;;;-1.29;58.83
83896;BME280;74045;42.812;74.638;2023-12-14T10:26:40;91556.25;;;-1.36;59.27
83896;BME280;74045;42.812;74.638;2023-12-14T10:29:07;91544.75;;;-1.47;59.17
83896;BME280;74045;42.812;74.638;2023-12-14T10:31:37;91549.03;;;-1.51;59.40
83896;BME280;74045;42.812;74.638;2023-12-14T10:34:06;91483.09;;;-2.05;59.49
83896;BME280;74045;42.812;74.638;2023-12-14T10:36:33;91541.06;;;-1.67;59.30
83896;BME280;74045;42.812;74.638;2023-12-14T10:39:00;91470.72;;;-2.20;59.49
83896;BME280;74045;42.812;74.638;2023-12-14T10:41:27;91464.09;;;-2.30;59.57
83896;BME280;74045;42.812;74.638;2023-12-14T10:43:56;91516.84;;;-1.92;59.77
83896;BME280;74045;42.812;74.638;2023-12-14T10:46:23;91529.19;;;-1.89;59.79
83896;BME280;74045;42.812;74.638;2023-12-14T10:48:52;91464.13;;;-2.38;59.98
83896;BME280;74045;42.812;74.638;2023-12-14T10:51:19;91503.75;;;-2.17;61.31
83896;BME280;74045;42.812;74.638;2023-12-14T10:53:46;91529.91;;;-2.10;61.49
83896;BME280;74045;42.812;74.638;2023-12-14T10:56:17;91496.88;;;-2.42;61.38
83896;BME280;74045;42.812;74.638;2023-12-14T10:58:55;91517.47;;;-2.63;61.22
83896;BME280;74045;42.812;74.638;2023-12-14T11:01:22;91492.34;;;-3.01;62.20
83896;BME280;74045;42.812;74.638;2023-12-14T11:03:52;91516.06;;;-2.99;62.46
83896;BME280;74045;42.812;74.638;2023-12-14T11:06:28;91516.84;;;-3.16;62.72
83896;BME280;74045;42.812;74.638;2023-12-14T11:09:17;91375.06;;;-4.34;62.37
83896;BME280;74045;42.812;74.638;2023-12-14T11:14:19;91515.38;;;-3.78;63.19
83896;BME280;74045;42.812;74.638;2023-12-14T11:16:47;91497.56;;;-4.06;63.51
83896;BME280;74045;42.812;74.638;2023-12-14T11:24:23;91527.00;;;-4.55;64.01
83896;BME280;74045;42.812;74.638;2023-12-14T11:26:49;91493.38;;;-4.90;64.55
83896;BME280;74045;42.812;74.638;2023-12-14T11:29:15;91509.13;;;-4.91;65.13
83896;BME280;74045;42.812;74.638;2023-12-14T11:31:42;91416.63;;;-5.64;65.27
83896;BME280;74045;42.812;74.638;2023-12-14T11:34:07;91503.19;;;-5.23;65.03
83896;BME280;74045;42.812;74.638;2023-12-14T11:36:33;91503.06;;;-5.41;65.47
83896;BME280;74045;42.812;74.638;2023-12-14T11:38:59;91496.31;;;-5.59;65.60
83896;BME280;74045;42.812;74.638;2023-12-14T11:41:25;91480.38;;;-5.83;65.72
83896;BME280;74045;42.812;74.638;2023-12-14T11:43:51;91492.41;;;-5.93;66.21
83896;BME280;74045;42.812;74.638;2023-12-14T11:46:17;91414.13;;;-6.59;66.53
83896;BME280;74045;42.812;74.638;2023-12-14T11:48:47;91461.03;;;-6.40;66.11
83896;BME280;74045;42.812;74.638;2023-12-14T11:51:17;91494.72;;;-6.41;66.65
83896;BME280;74045;42.812;74.638;2023-12-14T11:53:46;91474.00;;;-6.72;67.34
83896;BME280;74045;42.812;74.638;2023-12-14T11:56:14;91482.66;;;-6.68;67.19
83896;BME280;74045;42.812;74.638;2023-12-14T11:58:43;91498.66;;;-6.85;67.58
83896;BME280;74045;42.812;74.638;2023-12-14T12:01:17;91475.34;;;-7.03;67.21
83896;BME280;74045;42.812;74.638;2023-12-14T12:03:45;91482.66;;;-7.10;67.54
83896;BME280;74045;42.812;74.638;2023-12-14T12:06:27;91478.66;;;-7.16;67.57
83896;BME280;74045;42.812;74.638;2023-12-14T12:08:53;91432.94;;;-7.60;67.96
83896;BME280;74045;42.812;74.638;2023-12-14T12:11:20;91474.97;;;-7.43;67.87
83896;BME280;74045;42.812;74.638;2023-12-14T12:13:54;91470.63;;;-7.42;68.16
83896;BME280;74045;42.812;74.638;2023-12-14T12:16:20;91464.91;;;-7.53;68.46
83896;BME280;74045;42.812;74.638;2023-12-14T12:18:46;91461.19;;;-7.47;69.28
83896;BME280;74045;42.812;74.638;2023-12-14T12:21:12;91374.72;;;-8.06;68.26
83896;BME280;74045;42.812;74.638;2023-12-14T12:23:38;91443.78;;;-7.63;68.41
83896;BME280;74045;42.812;74.638;2023-12-14T12:26:04;91373.13;;;-8.02;68.96
83896;BME280;74045;42.812;74.638;2023-12-14T12:28:31;91466.53;;;-7.43;69.18
83896;BME280;74045;42.812;74.638;2023-12-14T12:30:57;91458.06;;;-7.44;69.55
83896;BME280;74045;42.812;74.638;2023-12-14T12:33:23;91458.63;;;-7.47;69.30
83896;BME280;74045;42.812;74.638;2023-12-14T12:35:49;91471.38;;;-7.41;68.95
83896;BME280;74045;42.812;74.638;2023-12-14T12:38:14;91454.66;;;-7.39;68.80
83896;BME280;74045;42.812;74.638;2023-12-14T12:40:41;91417.94;;;-7.67;69.46
83896;BME280;74045;42.812;74.638;2023-12-14T12:43:10;91465.69;;;-7.38;68.99
83896;BME280;74045;42.812;74.638;2023-12-14T12:45:37;91447.63;;;-7.47;69.64
83896;BME280;74045;42.812;74.638;2023-12-14T12:48:03;91453.69;;;-7.43;69.30
83896;BME280;74045;42.812;74.638;2023-12-14T12:50:31;91463.69;;;-7.41;69.42
83896;BME280;74045;42.812;74.638;2023-12-14T12:52:57;91439.84;;;-7.42;68.84